Time;durP1;ratioP1;P1;durP2;ratioP2;P2;SDS_P1;SDS_P2;PMS_P1;PMS_P2;Temp;Humidity;BMP_temperature;BMP_pressure;BME280_temperature;BME280_humidity;BME280_pressure;Samples;Min_cycle;Max_cycle;Signal;HPM_P1;HPM_P2
2023/06/06 00:01:40;;;;;;;2.67;2.47;;;15.50;99.90;;;;;;5106717;28;20085;-75
2023/06/06 00:04:05;;;;;;;2.50;2.30;;;15.40;99.90;;;;;;5098241;28;20043;-75
2023/06/06 00:06:33;;;;;;;5.65;2.50;;;15.40;99.90;;;;;;5101261;28;20024;-75
2023/06/06 00:08:59;;;;;;;3.47;2.50;;;15.30;99.90;;;;;;5111239;28;20035;-75
2023/06/06 00:11:26;;;;;;;3.60;2.42;;;15.30;99.90;;;;;;5112534;28;20032;-75
2023/06/06 00:13:51;;;;;;;2.67;2.28;;;15.20;99.90;;;;;;5122467;28;20111;-75
2023/06/06 00:16:17;;;;;;;3.53;2.70;;;15.20;99.90;;;;;;5107296;28;20059;-70
2023/06/06 00:18:45;;;;;;;3.60;2.67;;;15.10;99.90;;;;;;5098797;28;20502;-72
2023/06/06 00:21:12;;;;;;;4.55;3.15;;;15.10;99.90;;;;;;5097055;28;20485;-73
2023/06/06 00:23:37;;;;;;;3.22;2.10;;;15.10;99.90;;;;;;5093899;28;20040;-72
2023/06/06 00:26:03;;;;;;;2.40;2.15;;;15.10;99.90;;;;;;5094101;28;20024;-71
2023/06/06 00:28:29;;;;;;;2.78;2.40;;;15.00;99.90;;;;;;5106230;27;20036;-72
2023/06/06 00:30:54;;;;;;;2.38;2.17;;;15.00;99.90;;;;;;5106039;28;20157;-72
2023/06/06 00:33:20;;;;;;;3.42;2.53;;;15.00;99.90;;;;;;5093281;28;20146;-72
2023/06/06 00:35:46;;;;;;;2.97;2.42;;;15.00;99.90;;;;;;5095180;28;20120;-73
2023/06/06 00:38:11;;;;;;;3.25;2.53;;;15.00;99.90;;;;;;5108018;28;20024;-73
2023/06/06 00:40:37;;;;;;;2.90;2.60;;;14.90;99.90;;;;;;5099943;27;20020;-73
2023/06/06 00:43:03;;;;;;;2.88;2.58;;;14.90;99.90;;;;;;5105404;27;20023;-73
2023/06/06 00:45:28;;;;;;;3.78;2.20;;;14.90;99.90;;;;;;5104653;28;20063;-73
2023/06/06 00:47:54;;;;;;;3.65;2.40;;;14.80;99.90;;;;;;5108528;28;20024;-74
2023/06/06 00:50:21;;;;;;;5.43;2.50;;;14.80;99.90;;;;;;5075756;28;20020;-75
2023/06/06 00:52:49;;;;;;;2.65;2.13;;;14.70;99.90;;;;;;5095318;28;20154;-74
2023/06/06 00:55:16;;;;;;;4.55;2.80;;;14.70;99.90;;;;;;5114764;28;20349;-72
2023/06/06 00:57:43;;;;;;;4.22;2.38;;;14.70;99.90;;;;;;5098314;28;20035;-74
2023/06/06 01:00:10;;;;;;;3.05;2.40;;;14.60;99.90;;;;;;5097612;27;20039;-74
2023/06/06 01:02:37;;;;;;;2.83;2.55;;;14.60;99.90;;;;;;5103262;27;20024;-74
2023/06/06 01:05:09;;;;;;;5.18;2.60;;;14.60;99.90;;;;;;5100111;27;20052;-74
2023/06/06 01:07:36;;;;;;;2.75;2.35;;;14.60;99.90;;;;;;5106647;27;20039;-74
2023/06/06 01:10:07;;;;;;;2.47;2.25;;;14.50;99.90;;;;;;5114335;28;20123;-75
2023/06/06 01:12:47;;;;;;;3.33;2.38;;;14.50;99.90;;;;;;5101004;28;20072;-75
2023/06/06 01:15:12;;;;;;;;;;;14.40;99.90;;;;;;5092122;28;20181;-74
2023/06/06 01:17:41;;;;;;;3.03;2.40;;;14.40;99.90;;;;;;5086389;28;20434;-75
2023/06/06 01:20:09;;;;;;;3.88;2.70;;;14.40;99.90;;;;;;5073372;28;20099;-74
2023/06/06 01:22:36;;;;;;;2.58;2.38;;;14.30;99.90;;;;;;5079581;28;20111;-74
2023/06/06 01:25:03;;;;;;;3.55;2.65;;;14.30;99.90;;;;;;5093505;28;20032;-74
2023/06/06 01:27:33;;;;;;;5.45;2.90;;;14.30;99.90;;;;;;5085061;28;20024;-74
2023/06/06 01:29:59;;;;;;;;;;;14.30;99.90;;;;;;5079172;28;20437;-75
2023/06/06 01:32:47;;;;;;;4.35;2.92;;;14.30;99.90;;;;;;5079476;28;19916;-75
2023/06/06 01:35:15;;;;;;;2.60;2.40;;;14.20;99.90;;;;;;5079753;28;20025;-74
2023/06/06 01:37:45;;;;;;;3.97;2.60;;;14.20;99.90;;;;;;5080661;28;20035;-74
2023/06/06 01:40:13;;;;;;;3.33;2.92;;;14.20;99.90;;;;;;5091045;28;20022;-74
2023/06/06 01:42:44;;;;;;;3.20;2.72;;;14.20;99.90;;;;;;5087339;28;20462;-74
2023/06/06 01:45:11;;;;;;;2.90;2.60;;;14.10;99.90;;;;;;5081372;28;20036;-73
2023/06/06 01:47:38;;;;;;;3.83;2.92;;;14.00;99.90;;;;;;5080276;28;20016;-73
2023/06/06 01:50:07;;;;;;;4.15;2.55;;;14.00;99.90;;;;;;5077850;28;20036;-74
2023/06/06 01:52:37;;;;;;;2.88;2.45;;;14.00;99.90;;;;;;5091200;28;20469;-75
2023/06/06 01:55:07;;;;;;;5.43;2.70;;;14.00;99.90;;;;;;5079258;28;20056;-75
2023/06/06 01:57:33;;;;;;;;;;;14.00;99.90;;;;;;5090618;28;20525;-75
2023/06/06 01:59:59;;;;;;;4.72;3.30;;;13.90;99.90;;;;;;5087312;28;19995;-74
2023/06/06 02:02:24;;;;;;;4.43;2.90;;;13.90;99.90;;;;;;5072626;28;20021;-75
2023/06/06 02:04:50;;;;;;;2.78;2.53;;;13.90;99.90;;;;;;5071845;28;20064;-75
2023/06/06 02:07:16;;;;;;;3.70;2.65;;;13.90;99.90;;;;;;5078477;28;20027;-71
2023/06/06 02:09:43;;;;;;;3.70;3.38;;;13.90;99.90;;;;;;5085734;28;20016;-75
2023/06/06 02:12:09;;;;;;;4.28;3.22;;;13.90;99.90;;;;;;5094201;28;20059;-74
2023/06/06 02:14:35;;;;;;;3.67;2.95;;;13.80;99.90;;;;;;5098193;28;20031;-73
2023/06/06 02:17:03;;;;;;;4.40;2.67;;;13.80;99.90;;;;;;5113127;28;20033;-74
2023/06/06 02:19:31;;;;;;;3.67;2.83;;;13.80;99.90;;;;;;5098539;28;20027;-73
2023/06/06 02:21:57;;;;;;;3.40;3.10;;;13.70;99.90;;;;;;5092660;28;20032;-73
2023/06/06 02:24:26;;;;;;;6.30;3.05;;;13.70;99.90;;;;;;5093106;27;20043;-74
2023/06/06 02:26:53;;;;;;;5.50;3.10;;;13.60;99.90;;;;;;5096804;27;20024;-74
2023/06/06 02:29:19;;;;;;;3.22;2.90;;;13.60;99.90;;;;;;5102513;28;20098;-73
2023/06/06 02:31:45;;;;;;;4.63;2.88;;;13.60;99.90;;;;;;5108068;28;20469;-74
2023/06/06 02:34:10;;;;;;;4.45;3.00;;;13.60;99.90;;;;;;5092246;28;20043;-74
2023/06/06 02:36:38;;;;;;;4.30;3.05;;;13.60;99.90;;;;;;5105377;28;20091;-75
2023/06/06 02:39:04;;;;;;;5.60;3.20;;;13.50;99.90;;;;;;5092263;28;20028;-74
2023/06/06 02:41:30;;;;;;;4.10;2.70;;;13.50;99.90;;;;;;5091787;28;20073;-74
2023/06/06 02:43:55;;;;;;;3.17;2.83;;;13.50;99.90;;;;;;5100987;27;20047;-75
2023/06/06 02:46:21;;;;;;;3.65;2.70;;;13.50;99.90;;;;;;5095064;27;20462;-74
2023/06/06 02:48:48;;;;;;;3.58;2.95;;;13.50;99.90;;;;;;5097895;27;20104;-74
2023/06/06 02:51:16;;;;;;;3.95;3.38;;;13.50;99.90;;;;;;5101251;28;20020;-72
2023/06/06 02:53:43;;;;;;;5.00;3.72;;;13.40;99.90;;;;;;5109864;28;20015;-73
2023/06/06 02:56:10;;;;;;;4.38;3.22;;;13.50;99.90;;;;;;5107790;28;20100;-75
2023/06/06 02:58:36;;;;;;;5.38;3.35;;;13.40;99.90;;;;;;5094065;28;20900;-74
2023/06/06 03:01:03;;;;;;;3.65;3.20;;;13.50;99.90;;;;;;5110074;27;20028;-75
2023/06/06 03:03:29;;;;;;;3.55;3.25;;;13.40;99.90;;;;;;5099755;28;20024;-74
2023/06/06 03:05:56;;;;;;;3.92;3.53;;;13.50;99.90;;;;;;5102022;28;20177;-74
2023/06/06 03:08:22;;;;;;;4.13;3.45;;;13.40;99.90;;;;;;5098706;28;20377;-74
2023/06/06 03:10:49;;;;;;;4.45;3.33;;;13.40;99.90;;;;;;5106933;28;20030;-74
2023/06/06 03:13:16;;;;;;;4.63;3.45;;;13.30;99.90;;;;;;5099362;28;20063;-72
2023/06/06 03:15:44;;;;;;;4.85;3.75;;;13.30;99.90;;;;;;5102763;28;20034;-74
2023/06/06 03:18:11;;;;;;;5.32;3.50;;;13.30;99.90;;;;;;5095876;28;20027;-71
2023/06/06 03:20:40;;;;;;;4.72;3.38;;;13.20;99.90;;;;;;5092629;27;20027;-74
2023/06/06 03:23:07;;;;;;;3.95;3.50;;;13.20;99.90;;;;;;5097193;28;20024;-73
2023/06/06 03:25:33;;;;;;;4.25;3.63;;;13.20;99.90;;;;;;5100414;27;20140;-74
2023/06/06 03:28:00;;;;;;;4.47;3.58;;;13.20;99.90;;;;;;5100390;27;20032;-74
2023/06/06 03:30:25;;;;;;;4.43;4.00;;;13.20;99.90;;;;;;5099447;28;20034;-74
2023/06/06 03:32:51;;;;;;;4.70;4.18;;;13.10;99.90;;;;;;5100449;28;20054;-73
2023/06/06 03:35:18;;;;;;;5.05;3.80;;;13.10;99.90;;;;;;5095693;28;20044;-72
2023/06/06 03:37:44;;;;;;;6.22;3.78;;;13.20;99.90;;;;;;5098219;28;20056;-73
2023/06/06 03:40:11;;;;;;;4.95;4.13;;;13.10;99.90;;;;;;5098119;28;20874;-73
2023/06/06 03:42:37;;;;;;;6.30;4.20;;;13.20;99.90;;;;;;5097146;28;20012;-73
2023/06/06 03:45:03;;;;;;;13.43;5.03;;;13.20;99.90;;;;;;5098298;28;20078;-74
2023/06/06 03:47:29;;;;;;;12.55;4.68;;;13.20;99.90;;;;;;5100485;28;20123;-73
2023/06/06 03:49:55;;;;;;;11.38;5.30;;;13.20;99.90;;;;;;5102323;28;20031;-74
2023/06/06 03:52:21;;;;;;;10.55;5.35;;;13.30;99.90;;;;;;5071846;28;20036;-72
2023/06/06 03:54:46;;;;;;;15.05;5.55;;;13.30;99.90;;;;;;5096416;28;20088;-72
2023/06/06 03:57:12;;;;;;;16.48;5.10;;;13.30;99.90;;;;;;5102132;28;20028;-74
2023/06/06 03:59:39;;;;;;;10.18;4.45;;;13.30;99.90;;;;;;5096127;28;20124;-74
2023/06/06 04:02:05;;;;;;;12.05;4.93;;;13.30;99.90;;;;;;5104654;28;20039;-74
2023/06/06 04:04:31;;;;;;;10.57;4.43;;;13.40;99.90;;;;;;5090356;28;20036;-73
2023/06/06 04:06:58;;;;;;;8.27;3.72;;;13.40;99.90;;;;;;5091033;28;20076;-74
2023/06/06 04:09:23;;;;;;;10.23;4.28;;;13.40;99.90;;;;;;5093577;28;20024;-74
2023/06/06 04:11:49;;;;;;;7.60;4.20;;;13.40;99.90;;;;;;5111558;28;20051;-74
2023/06/06 04:14:15;;;;;;;6.03;3.80;;;13.40;99.90;;;;;;5106447;28;20384;-71
2023/06/06 04:16:41;;;;;;;7.70;3.90;;;13.40;99.90;;;;;;5106121;28;20038;-74
2023/06/06 04:19:07;;;;;;;11.85;4.70;;;13.50;99.90;;;;;;5102701;28;20028;-74
2023/06/06 04:21:33;;;;;;;6.85;4.07;;;13.50;99.90;;;;;;5090608;28;20465;-74
2023/06/06 04:23:59;;;;;;;5.55;3.85;;;13.50;99.90;;;;;;5073216;28;20042;-75
2023/06/06 04:26:26;;;;;;;6.93;3.50;;;13.50;99.90;;;;;;5102644;28;20034;-73
2023/06/06 04:28:58;;;;;;;4.18;3.78;;;13.60;99.90;;;;;;5100922;27;20093;-73
2023/06/06 04:31:25;;;;;;;5.63;4.18;;;13.70;99.90;;;;;;5101552;27;20035;-74
2023/06/06 04:33:54;;;;;;;4.63;3.47;;;13.80;99.90;;;;;;5103950;27;20046;-74
2023/06/06 04:36:21;;;;;;;4.57;3.50;;;13.80;99.90;;;;;;5100969;27;20476;-75
2023/06/06 04:38:49;;;;;;;3.95;3.35;;;13.90;99.90;;;;;;5097926;28;20403;-74
2023/06/06 04:41:16;;;;;;;3.65;3.00;;;14.00;99.90;;;;;;5101153;27;20024;-73
2023/06/06 04:43:42;;;;;;;4.88;3.85;;;14.00;99.90;;;;;;5102154;27;20035;-74
2023/06/06 04:46:08;;;;;;;5.78;4.25;;;14.10;99.90;;;;;;5099556;27;20050;-73
2023/06/06 04:48:34;;;;;;;6.20;3.88;;;14.20;99.90;;;;;;5102641;27;20479;-74
2023/06/06 04:50:59;;;;;;;6.28;4.10;;;14.30;99.90;;;;;;5099693;27;20032;-74
2023/06/06 04:53:25;;;;;;;6.10;3.90;;;14.40;99.90;;;;;;5100667;27;20047;-75
2023/06/06 04:55:55;;;;;;;11.18;5.28;;;14.50;99.90;;;;;;5099714;27;20024;-79
2023/06/06 04:58:21;;;;;;;;;;;14.60;99.90;;;;;;5101441;27;20024;-76
2023/06/06 05:00:48;;;;;;;8.20;5.10;;;14.70;99.90;;;;;;5102200;28;20259;-75
2023/06/06 05:03:19;;;;;;;9.35;6.40;;;14.80;99.90;;;;;;5104213;28;20027;-70
2023/06/06 05:05:48;;;;;;;8.27;6.03;;;15.00;99.90;;;;;;5107175;28;20500;-70
2023/06/06 05:08:14;;;;;;;8.60;6.32;;;15.00;99.90;;;;;;5105317;28;20028;-67
2023/06/06 05:10:40;;;;;;;10.32;6.45;;;15.20;99.90;;;;;;5106414;28;20070;-68
2023/06/06 05:13:05;;;;;;;9.45;7.13;;;15.30;99.90;;;;;;5102997;28;20058;-68
2023/06/06 05:15:31;;;;;;;10.52;6.43;;;15.40;99.90;;;;;;5102188;28;20384;-69
2023/06/06 05:17:57;;;;;;;9.18;6.00;;;15.50;99.90;;;;;;5104840;28;20377;-70
2023/06/06 05:20:26;;;;;;;6.35;4.97;;;15.50;99.90;;;;;;5103541;28;20062;-69
2023/06/06 05:22:51;;;;;;;9.70;5.45;;;15.60;99.90;;;;;;5100016;28;20028;-70
2023/06/06 05:25:17;;;;;;;8.75;5.35;;;15.70;99.90;;;;;;5103980;28;20376;-69
2023/06/06 05:27:43;;;;;;;8.43;5.75;;;15.90;99.90;;;;;;5100178;27;20034;-70
2023/06/06 05:30:10;;;;;;;9.43;5.30;;;16.00;99.90;;;;;;5099043;27;20464;-68
2023/06/06 05:32:35;;;;;;;7.50;5.40;;;16.10;99.90;;;;;;5101739;27;20031;-71
2023/06/06 05:35:03;;;;;;;6.47;4.32;;;16.10;99.90;;;;;;5099532;27;20035;-72
2023/06/06 05:37:29;;;;;;;5.63;4.20;;;16.30;99.90;;;;;;5098761;27;20092;-71
2023/06/06 05:39:54;;;;;;;12.57;6.25;;;16.40;99.90;;;;;;5099102;28;20047;-72
2023/06/06 05:42:22;;;;;;;4.93;4.13;;;16.50;99.90;;;;;;5104529;28;20058;-80
2023/06/06 05:44:51;;;;;;;8.63;5.18;;;16.60;99.90;;;;;;5105046;28;20089;-74
2023/06/06 05:47:17;;;;;;;7.07;4.40;;;16.60;99.90;;;;;;5104045;28;20024;-71
2023/06/06 05:49:43;;;;;;;8.90;4.50;;;16.60;99.90;;;;;;5112953;28;20020;-79
2023/06/06 05:52:08;;;;;;;6.22;4.82;;;16.60;99.90;;;;;;5113853;28;20023;-75
2023/06/06 05:54:34;;;;;;;8.50;4.85;;;16.60;99.90;;;;;;5100547;27;20097;-74
2023/06/06 05:57:00;;;;;;;9.68;4.55;;;16.70;99.90;;;;;;5097059;27;20468;-74
2023/06/06 05:59:26;;;;;;;5.38;4.13;;;16.80;99.90;;;;;;5101114;27;20115;-76
2023/06/06 06:01:52;;;;;;;9.90;4.82;;;16.90;99.90;;;;;;5103395;27;20426;-71
2023/06/06 06:04:19;;;;;;;6.45;4.45;;;17.10;99.90;;;;;;5097165;27;20061;-75
2023/06/06 06:06:48;;;;;;;7.28;4.60;;;17.30;99.90;;;;;;5103188;27;20548;-73
2023/06/06 06:09:16;;;;;;;5.05;3.63;;;17.40;99.90;;;;;;5072344;28;20034;-71
2023/06/06 06:11:41;;;;;;;5.25;4.00;;;17.50;99.90;;;;;;5097347;28;20097;-71
2023/06/06 06:14:07;;;;;;;4.65;3.53;;;17.60;99.90;;;;;;5104625;28;20023;-73
2023/06/06 06:16:32;;;;;;;7.47;4.40;;;17.70;99.90;;;;;;5104149;28;20031;-71
2023/06/06 06:18:58;;;;;;;9.10;4.03;;;17.80;99.90;;;;;;5103166;28;20107;-71
2023/06/06 06:21:25;;;;;;;5.50;3.85;;;17.90;99.90;;;;;;5098026;28;20055;-70
2023/06/06 06:23:51;;;;;;;6.80;3.90;;;17.80;99.90;;;;;;5102677;28;20425;-71
2023/06/06 06:26:17;;;;;;;9.15;4.65;;;17.80;99.90;;;;;;5105529;28;20103;-69
2023/06/06 06:28:43;;;;;;;5.32;3.88;;;17.80;99.90;;;;;;5103278;28;20028;-71
2023/06/06 06:31:08;;;;;;;6.22;3.97;;;18.00;99.90;;;;;;5102914;27;20167;-71
2023/06/06 06:33:34;;;;;;;6.57;4.32;;;18.10;99.90;;;;;;5098767;28;20028;-71
2023/06/06 06:36:00;;;;;;;7.82;3.85;;;18.20;99.90;;;;;;5105026;28;20023;-71
2023/06/06 06:38:26;;;;;;;10.88;4.20;;;18.30;99.90;;;;;;5106645;28;20019;-71
2023/06/06 06:40:53;;;;;;;9.30;4.38;;;18.40;99.90;;;;;;5101370;28;20372;-71
2023/06/06 06:43:19;;;;;;;7.85;3.92;;;18.60;99.90;;;;;;5105989;28;20027;-68
2023/06/06 06:45:45;;;;;;;7.85;3.75;;;18.80;99.90;;;;;;5109698;27;20537;-72
2023/06/06 06:48:10;;;;;;;12.95;5.47;;;18.80;99.90;;;;;;5099253;27;20187;-71
2023/06/06 06:50:36;;;;;;;29.90;6.53;;;18.90;99.90;;;;;;5109057;28;20602;-71
2023/06/06 06:53:02;;;;;;;16.10;5.07;;;19.00;99.90;;;;;;5104109;28;20028;-71
2023/06/06 06:55:28;;;;;;;25.70;7.07;;;19.10;99.90;;;;;;5101742;28;20046;-70
2023/06/06 06:57:54;;;;;;;7.25;4.15;;;19.20;99.90;;;;;;5106755;28;20546;-71
2023/06/06 07:00:23;;;;;;;10.02;4.13;;;19.20;99.90;;;;;;5104011;28;20019;-71
2023/06/06 07:02:50;;;;;;;6.82;3.65;;;19.30;99.90;;;;;;5108822;28;20043;-71
2023/06/06 07:05:16;;;;;;;5.93;3.63;;;19.40;99.80;;;;;;5099887;28;20039;-68
2023/06/06 07:07:50;;;;;;;11.25;5.65;;;19.50;99.90;;;;;;5108425;28;20047;-71
2023/06/06 07:10:16;;;;;;;7.40;4.43;;;19.80;99.50;;;;;;5106183;28;20114;-68
2023/06/06 07:12:45;;;;;;;104.55;19.27;;;19.90;98.50;;;;;;5092362;28;20397;-71
2023/06/06 07:15:11;;;;;;;17.50;5.53;;;20.00;98.80;;;;;;5087972;28;20392;-69
2023/06/06 07:17:36;;;;;;;20.60;6.65;;;20.10;98.10;;;;;;5084024;28;20016;-71
2023/06/06 07:20:05;;;;;;;10.02;3.97;;;20.20;98.30;;;;;;5089451;28;20024;-71
2023/06/06 07:22:31;;;;;;;9.68;4.20;;;20.20;98.10;;;;;;5089268;28;20377;-71
2023/06/06 07:24:56;;;;;;;21.77;6.35;;;20.20;97.80;;;;;;5089918;28;20040;-71
2023/06/06 07:27:22;;;;;;;17.35;5.30;;;20.30;98.10;;;;;;5089159;28;20028;-70
2023/06/06 07:29:47;;;;;;;8.90;4.18;;;20.30;97.20;;;;;;5089120;28;20028;-71
2023/06/06 07:32:13;;;;;;;8.65;4.07;;;20.30;97.00;;;;;;5090393;28;20027;-70
2023/06/06 07:34:39;;;;;;;9.45;4.20;;;20.40;96.90;;;;;;5089128;28;20434;-71
2023/06/06 07:37:06;;;;;;;6.55;3.58;;;20.50;96.20;;;;;;5089018;28;20146;-71
2023/06/06 07:39:32;;;;;;;8.40;4.03;;;20.50;96.20;;;;;;5088966;28;20043;-70
2023/06/06 07:41:58;;;;;;;16.42;5.32;;;20.50;96.00;;;;;;5090319;28;20028;-69
2023/06/06 07:44:24;;;;;;;8.73;4.28;;;20.70;95.70;;;;;;5086434;28;20378;-71
2023/06/06 07:46:49;;;;;;;10.18;4.82;;;20.70;95.60;;;;;;5090995;28;20092;-71
2023/06/06 07:49:15;;;;;;;6.03;3.50;;;20.80;95.40;;;;;;5089473;28;20372;-69
2023/06/06 07:51:41;;;;;;;5.57;3.00;;;20.90;94.50;;;;;;5089997;28;20025;-71
2023/06/06 07:54:06;;;;;;;6.50;4.03;;;21.00;94.00;;;;;;5086414;28;20055;-70
2023/06/06 07:56:36;;;;;;;6.03;3.75;;;21.10;94.30;;;;;;5090120;28;20020;-72
2023/06/06 07:59:02;;;;;;;10.13;4.00;;;21.20;93.90;;;;;;5089730;28;20024;-71
2023/06/06 08:01:29;;;;;;;10.43;3.60;;;21.30;93.80;;;;;;5089525;28;20385;-71
2023/06/06 08:03:55;;;;;;;5.00;3.35;;;21.40;92.30;;;;;;5093659;28;20016;-71
2023/06/06 08:06:23;;;;;;;5.32;3.25;;;21.40;92.50;;;;;;5093237;28;20024;-71
2023/06/06 08:08:49;;;;;;;6.18;3.35;;;21.50;92.40;;;;;;5093355;28;20035;-71
2023/06/06 08:11:15;;;;;;;6.00;3.60;;;21.60;92.20;;;;;;5093821;28;20024;-70
2023/06/06 08:13:41;;;;;;;4.82;3.40;;;21.70;92.10;;;;;;5124110;27;20027;-71
2023/06/06 08:16:07;;;;;;;7.20;3.40;;;21.80;92.20;;;;;;5115858;27;20494;-72
2023/06/06 08:18:33;;;;;;;5.10;3.25;;;21.90;92.00;;;;;;5117469;27;20471;-71
2023/06/06 08:20:58;;;;;;;10.38;3.53;;;22.00;91.90;;;;;;5124239;27;20023;-71
2023/06/06 08:23:24;;;;;;;6.78;3.45;;;22.00;91.80;;;;;;5125395;27;20461;-72
2023/06/06 08:25:55;;;;;;;5.43;3.50;;;22.10;91.90;;;;;;5120477;27;20034;-71
2023/06/06 08:28:28;;;;;;;47.90;5.80;;;22.20;91.80;;;;;;5116410;27;20019;-72
2023/06/06 08:30:54;;;;;;;10.55;3.90;;;22.10;91.70;;;;;;5130702;27;20023;-72
2023/06/06 08:33:20;;;;;;;17.83;4.00;;;22.20;91.70;;;;;;5121521;27;20487;-69
2023/06/06 08:35:47;;;;;;;14.73;3.97;;;22.20;91.60;;;;;;5118417;27;20060;-71
2023/06/06 08:38:13;;;;;;;10.40;4.28;;;22.30;91.60;;;;;;5119151;27;20076;-71
2023/06/06 08:40:39;;;;;;;34.65;5.15;;;22.40;91.20;;;;;;5129161;27;20027;-72
2023/06/06 08:43:06;;;;;;;5.28;3.42;;;22.50;91.30;;;;;;5121179;27;20112;-72
2023/06/06 08:45:32;;;;;;;6.47;3.22;;;22.60;90.60;;;;;;5115380;27;20063;-72
2023/06/06 08:47:58;;;;;;;5.47;3.53;;;22.70;90.50;;;;;;5116253;27;20056;-72
2023/06/06 08:50:26;;;;;;;10.95;3.60;;;22.70;90.50;;;;;;5126442;27;20023;-71
2023/06/06 08:52:51;;;;;;;5.35;3.97;;;22.60;90.50;;;;;;5114367;27;20131;-72
2023/06/06 08:55:18;;;;;;;4.80;3.38;;;22.70;90.80;;;;;;5114065;27;20218;-69
2023/06/06 08:57:46;;;;;;;11.38;4.18;;;22.70;90.70;;;;;;5125315;27;20024;-72
2023/06/06 09:00:20;;;;;;;4.05;3.38;;;22.80;90.80;;;;;;5125121;27;20479;-72
2023/06/06 09:02:47;;;;;;;5.85;3.60;;;22.90;90.50;;;;;;5115723;27;20026;-71
2023/06/06 09:05:17;;;;;;;7.47;3.97;;;23.00;90.20;;;;;;5113414;27;20043;-72
2023/06/06 09:07:42;;;;;;;6.33;4.30;;;23.10;90.20;;;;;;5123326;27;20032;-72
2023/06/06 09:10:09;;;;;;;8.07;3.90;;;23.20;88.80;;;;;;5114175;27;20423;-72
2023/06/06 09:12:42;;;;;;;7.57;4.22;;;23.30;89.20;;;;;;5108490;28;20039;-72
2023/06/06 09:15:09;;;;;;;5.32;3.65;;;23.40;88.40;;;;;;5110420;27;20081;-70
2023/06/06 09:17:54;;;;;;;3.95;3.55;;;23.50;87.80;;;;;;5112851;28;20032;-70
2023/06/06 09:20:21;;;;;;;6.30;3.63;;;23.50;86.90;;;;;;5109492;28;20020;-71
2023/06/06 09:22:48;;;;;;;5.78;3.50;;;23.60;86.60;;;;;;5121024;27;20029;-71
2023/06/06 09:25:21;;;;;;;5.22;3.35;;;23.70;86.20;;;;;;5122148;27;20054;-71
2023/06/06 09:27:48;;;;;;;9.65;3.90;;;23.50;85.30;;;;;;5112573;28;20468;-71
2023/06/06 09:30:24;;;;;;;4.88;3.30;;;23.40;85.70;;;;;;5111935;28;20460;-71
2023/06/06 09:33:04;;;;;;;9.02;4.03;;;23.50;85.20;;;;;;5113479;27;20019;-71
2023/06/06 09:35:40;;;;;;;4.38;3.92;;;23.60;85.60;;;;;;5111347;28;20024;-69
2023/06/06 09:38:10;;;;;;;7.07;4.13;;;23.70;84.80;;;;;;5114497;27;20027;-71
2023/06/06 09:40:48;;;;;;;8.88;3.38;;;23.90;83.90;;;;;;5128341;27;20125;-71
2023/06/06 09:43:15;;;;;;;3.95;3.10;;;24.00;83.20;;;;;;5118692;27;20417;-71
2023/06/06 09:45:49;;;;;;;6.68;3.72;;;24.20;82.50;;;;;;5111249;27;20038;-71
2023/06/06 09:48:22;;;;;;;5.15;3.75;;;24.30;82.50;;;;;;5117318;27;20459;-67
2023/06/06 09:50:52;;;;;;;6.40;4.03;;;24.50;81.80;;;;;;5123972;27;20019;-72
2023/06/06 09:53:17;;;;;;;4.70;3.70;;;24.60;79.70;;;;;;5115580;27;20426;-69
2023/06/06 09:55:44;;;;;;;5.38;4.03;;;24.50;78.40;;;;;;5113138;27;20084;-72
2023/06/06 09:58:15;;;;;;;3.92;3.38;;;24.40;78.70;;;;;;5127336;27;20372;-71
2023/06/06 10:00:42;;;;;;;10.57;3.42;;;24.40;78.70;;;;;;5114286;27;20023;-72
2023/06/06 10:03:08;;;;;;;4.03;3.40;;;24.50;78.60;;;;;;5113514;27;20035;-71
2023/06/06 10:05:37;;;;;;;5.07;3.65;;;24.50;79.00;;;;;;5123480;27;20032;-71
2023/06/06 10:08:04;;;;;;;4.78;3.20;;;24.50;78.20;;;;;;5124419;27;20026;-71
2023/06/06 10:10:31;;;;;;;7.85;3.88;;;24.40;78.30;;;;;;5112687;27;20028;-71
2023/06/06 10:12:58;;;;;;;8.85;4.32;;;24.50;78.00;;;;;;5122148;27;20160;-71
2023/06/06 10:15:25;;;;;;;7.97;4.00;;;24.30;78.60;;;;;;5113470;27;20034;-71
2023/06/06 10:17:52;;;;;;;4.07;3.40;;;24.20;78.40;;;;;;5119838;27;20408;-71
2023/06/06 10:20:17;;;;;;;5.93;3.72;;;24.20;78.90;;;;;;5113071;27;20027;-70
2023/06/06 10:22:43;;;;;;;6.03;3.60;;;24.20;78.70;;;;;;5103017;28;20032;-71
2023/06/06 10:25:12;;;;;;;6.68;3.85;;;24.50;78.50;;;;;;5094356;27;20045;-71
2023/06/06 10:27:46;;;;;;;5.57;3.72;;;24.70;78.30;;;;;;5092609;28;20031;-71
2023/06/06 10:30:36;;;;;;;5.80;3.35;;;24.90;77.60;;;;;;5094993;27;20023;-69
2023/06/06 10:33:08;;;;;;;3.47;3.17;;;25.00;77.40;;;;;;5094128;28;20024;-70
2023/06/06 10:35:36;;;;;;;7.03;3.38;;;24.90;77.80;;;;;;5107442;28;20032;-71
2023/06/06 10:38:07;;;;;;;5.57;3.65;;;24.90;76.90;;;;;;5111988;28;20023;-71
2023/06/06 10:40:46;;;;;;;6.25;3.45;;;24.80;76.90;;;;;;5110151;28;20464;-71
2023/06/06 10:43:12;;;;;;;8.60;3.40;;;24.90;76.90;;;;;;5112057;28;20028;-71
2023/06/06 10:45:45;;;;;;;6.25;4.03;;;25.00;76.90;;;;;;5110108;28;20034;-71
2023/06/06 10:48:13;;;;;;;4.72;3.30;;;25.20;76.80;;;;;;5111024;28;20020;-71
2023/06/06 10:50:52;;;;;;;4.60;3.55;;;25.40;88.00;;;;;;5105456;28;20761;-70
2023/06/06 10:53:18;;;;;;;7.40;3.75;;;25.60;79.90;;;;;;5105028;28;20031;-70
2023/06/06 10:55:45;;;;;;;5.40;3.60;;;25.60;75.10;;;;;;5108268;28;20039;-71
2023/06/06 10:58:32;;;;;;;4.38;3.58;;;25.70;73.80;;;;;;5111262;28;20026;-71
2023/06/06 11:01:06;;;;;;;11.80;3.95;;;26.00;76.60;;;;;;5112023;28;20477;-71
2023/06/06 11:03:40;;;;;;;4.30;3.50;;;26.00;75.50;;;;;;5107441;28;20024;-71
2023/06/06 11:06:11;;;;;;;7.10;3.53;;;26.10;73.80;;;;;;5093156;28;20122;-71
2023/06/06 11:08:39;;;;;;;6.18;3.58;;;26.00;74.20;;;;;;5089884;28;20062;-70
2023/06/06 11:11:22;;;;;;;3.55;3.25;;;26.00;75.20;;;;;;5090085;28;20048;-71
2023/06/06 11:13:56;;;;;;;8.00;3.75;;;25.90;74.20;;;;;;5095975;28;20134;-71
2023/06/06 11:16:38;;;;;;;4.93;3.45;;;26.10;80.30;;;;;;5092021;28;20059;-71
2023/06/06 11:19:12;;;;;;;6.13;3.60;;;26.20;72.10;;;;;;5090565;28;20115;-71
2023/06/06 11:21:40;;;;;;;3.63;3.17;;;26.20;72.50;;;;;;5090075;28;20582;-71
2023/06/06 11:24:06;;;;;;;5.95;3.58;;;26.00;70.80;;;;;;5089741;28;20047;-71
2023/06/06 11:26:39;;;;;;;7.57;3.70;;;25.70;71.10;;;;;;5098388;28;20038;-71
2023/06/06 11:29:07;;;;;;;4.20;3.80;;;25.40;72.00;;;;;;5104881;28;20027;-71
2023/06/06 11:31:35;;;;;;;4.65;3.13;;;25.20;72.80;;;;;;5102544;27;20081;-71
2023/06/06 11:34:09;;;;;;;4.40;4.00;;;25.00;73.10;;;;;;5093396;28;20027;-70
2023/06/06 11:36:36;;;;;;;25.95;5.25;;;24.70;73.60;;;;;;5096962;28;20840;-71
2023/06/06 11:39:07;;;;;;;6.00;4.32;;;24.50;74.10;;;;;;5095671;28;20078;-71
2023/06/06 11:41:44;;;;;;;4.82;3.55;;;24.50;73.30;;;;;;5096855;28;20041;-71
2023/06/06 11:44:11;;;;;;;20.38;4.47;;;24.50;73.30;;;;;;5099221;28;20452;-71
2023/06/06 11:46:47;;;;;;;4.80;3.45;;;24.70;73.20;;;;;;5096467;28;20024;-72
2023/06/06 11:49:13;;;;;;;7.07;4.03;;;25.10;71.70;;;;;;5094699;28;20024;-71
2023/06/06 11:51:39;;;;;;;9.32;3.58;;;25.20;71.30;;;;;;5107642;28;20084;-72
2023/06/06 11:54:18;;;;;;;6.38;3.97;;;25.50;71.30;;;;;;5106745;28;20106;-70
2023/06/06 11:56:44;;;;;;;12.05;3.35;;;26.00;71.10;;;;;;5103246;28;20390;-72
2023/06/06 11:59:14;;;;;;;5.22;3.70;;;26.10;69.70;;;;;;5106275;28;20051;-71
2023/06/06 12:01:50;;;;;;;11.40;3.55;;;26.00;70.80;;;;;;5095473;28;20468;-72
2023/06/06 12:04:19;;;;;;;6.15;3.70;;;25.80;70.50;;;;;;5099865;28;20067;-70
2023/06/06 12:06:47;;;;;;;5.10;3.70;;;25.40;69.20;;;;;;5104722;28;20036;-70
2023/06/06 12:09:16;;;;;;;5.15;3.67;;;25.10;70.00;;;;;;5099728;28;20048;-70
2023/06/06 12:11:57;;;;;;;7.88;3.88;;;24.90;69.80;;;;;;5078860;28;20376;-70
2023/06/06 12:14:25;;;;;;;6.72;3.70;;;24.90;70.20;;;;;;5106775;28;20030;-69
2023/06/06 12:16:51;;;;;;;5.47;3.38;;;25.20;69.70;;;;;;5102916;28;20586;-70
2023/06/06 12:19:18;;;;;;;4.30;3.83;;;25.40;69.80;;;;;;5089393;28;20028;-68
2023/06/06 12:21:51;;;;;;;4.45;3.63;;;25.10;69.40;;;;;;5104900;28;20020;-70
2023/06/06 12:24:19;;;;;;;4.93;4.05;;;25.10;70.40;;;;;;5112542;28;20119;-68
2023/06/06 12:27:02;;;;;;;4.30;3.30;;;25.40;70.10;;;;;;5107211;28;20034;-73
2023/06/06 12:29:33;;;;;;;4.68;3.50;;;25.90;83.70;;;;;;5117262;28;20024;-69
2023/06/06 12:32:19;;;;;;;6.65;3.75;;;26.30;68.20;;;;;;5114791;28;20058;-72
2023/06/06 12:34:49;;;;;;;6.30;3.60;;;26.40;68.00;;;;;;5107910;28;20441;-70
2023/06/06 12:37:18;;;;;;;4.88;3.42;;;26.40;68.30;;;;;;5099870;28;20023;-68
2023/06/06 12:39:45;;;;;;;4.32;3.53;;;26.10;66.60;;;;;;5100422;28;20024;-69
2023/06/06 12:42:15;;;;;;;3.88;3.53;;;25.90;67.20;;;;;;5098171;28;20073;-70
2023/06/06 12:44:41;;;;;;;5.28;3.55;;;26.10;68.90;;;;;;5097996;28;20384;-71
2023/06/06 12:47:07;;;;;;;5.43;3.63;;;26.20;69.30;;;;;;5123822;28;20345;-72
2023/06/06 12:49:36;;;;;;;5.13;3.47;;;26.20;69.70;;;;;;5116729;27;20023;-71